Terminal Aerodrome Forecast
Issued by NWS

Home | Current Version | Previous Version | Text Only | Print | Product List | Glossary On
Versions: 1 2 3 4 5 6 7 8 9 10 11 12 13
000
FTUS45 KTFX 231139
TAFHLN
TAF
KHLN 231139Z 2312/2412 VRB05KT P6SM BKN060
     FM231800 02008KT P6SM VCSH OVC050
      TEMPO 2318/2322 -SHRA OVC025
     FM232200 36012KT P6SM VCSH OVC050
      TEMPO 2322/2402 -SHRA OVC025
     FM240200 32006KT P6SM VCSH OVC050
     FM240900 30006KT P6SM OVC070=

USA.gov is the U.S. government's official web portal to all federal, state and local government web resources and services.